createdAt,value
2023-02-18T00:01:31.204Z,14.00
2023-02-18T00:04:00.095Z,11.77
2023-02-18T00:06:29.997Z,19.88
2023-02-18T00:08:59.057Z,10.32
2023-02-18T00:11:26.262Z,14.02
2023-02-18T00:13:57.411Z,13.00
2023-02-18T00:16:25.574Z,18.40
2023-02-18T00:19:00.817Z,13.10
2023-02-18T00:21:27.978Z,17.42
2023-02-18T00:23:55.985Z,18.67
2023-02-18T00:26:23.570Z,17.80
2023-02-18T00:28:51.915Z,12.25
2023-02-18T00:31:28.176Z,8.02
2023-02-18T00:33:57.472Z,12.75
2023-02-18T00:36:25.434Z,13.75
2023-02-18T00:38:56.203Z,9.38
2023-02-18T00:41:25.362Z,11.88
2023-02-18T00:43:56.000Z,12.05
2023-02-18T00:46:24.659Z,12.80
2023-02-18T00:48:54.815Z,13.05
2023-02-18T00:51:22.163Z,10.82
2023-02-18T00:53:49.944Z,10.70
2023-02-18T00:56:17.414Z,11.48
2023-02-18T00:58:44.771Z,14.30
2023-02-18T01:01:12.080Z,12.88
2023-02-18T01:03:42.589Z,10.48
2023-02-18T01:06:11.594Z,11.95
2023-02-18T01:08:40.703Z,10.88
2023-02-18T01:11:09.245Z,8.57
2023-02-18T01:13:37.139Z,8.90
2023-02-18T01:16:07.321Z,7.82
2023-02-18T01:18:34.997Z,14.20
2023-02-18T01:21:08.427Z,6.78
2023-02-18T01:23:38.166Z,6.65
2023-02-18T01:26:05.973Z,10.23
2023-02-18T01:28:33.785Z,9.55
2023-02-18T01:31:06.708Z,9.88
2023-02-18T01:33:34.263Z,7.55
2023-02-18T01:36:01.609Z,10.70
2023-02-18T01:38:28.887Z,10.35
2023-02-18T01:40:56.062Z,10.30
2023-02-18T01:43:23.746Z,12.82
2023-02-18T01:46:05.340Z,12.75
2023-02-18T01:48:43.360Z,17.00
2023-02-18T01:51:16.454Z,8.13
2023-02-18T01:53:50.953Z,8.57
2023-02-18T01:56:43.726Z,15.10
2023-02-18T01:59:17.459Z,6.47
2023-02-18T02:01:46.874Z,11.05
2023-02-18T02:04:14.390Z,5.78
2023-02-18T02:06:41.998Z,8.40
2023-02-18T02:09:17.444Z,8.18
2023-02-18T02:12:12.172Z,7.20
2023-02-18T02:14:45.666Z,16.63
2023-02-18T02:17:31.597Z,11.68
2023-02-18T02:20:17.003Z,11.07
2023-02-18T02:23:22.134Z,14.07
2023-02-18T02:25:58.085Z,10.30
2023-02-18T02:28:45.975Z,11.07
2023-02-18T02:31:35.766Z,13.25
2023-02-18T02:34:05.608Z,5.85
2023-02-18T02:36:49.673Z,10.75
2023-02-18T02:39:29.387Z,4.65
2023-02-18T02:42:15.951Z,13.13
2023-02-18T02:45:07.522Z,12.20
2023-02-18T02:47:58.558Z,12.75
2023-02-18T02:50:35.136Z,8.00
2023-02-18T02:53:08.308Z,11.40
2023-02-18T02:55:35.974Z,6.63
2023-02-18T02:58:03.532Z,8.73
2023-02-18T03:01:01.537Z,12.15
2023-02-18T03:03:44.889Z,17.45
2023-02-18T03:06:41.658Z,7.82
2023-02-18T03:09:33.806Z,12.60
2023-02-18T03:12:11.698Z,11.32
2023-02-18T03:14:58.043Z,12.60
2023-02-18T03:17:34.893Z,4.03
2023-02-18T03:20:10.440Z,10.45
2023-02-18T03:25:13.137Z,8.90
2023-02-18T03:27:50.807Z,9.75
2023-02-18T03:30:27.363Z,9.93
2023-02-18T03:32:59.560Z,17.15
2023-02-18T03:35:28.917Z,6.50
2023-02-18T03:38:09.641Z,11.38
2023-02-18T03:40:37.221Z,11.05
2023-02-18T03:43:04.764Z,11.50
2023-02-18T03:45:32.991Z,8.75
2023-02-18T03:47:59.954Z,10.07
2023-02-18T03:50:28.541Z,12.48
2023-02-18T03:52:55.582Z,13.00
2023-02-18T03:55:23.143Z,11.38
2023-02-18T03:57:50.192Z,5.18
2023-02-18T04:00:18.049Z,12.77
2023-02-18T04:02:45.296Z,8.75
2023-02-18T04:05:13.003Z,11.60
2023-02-18T04:07:40.026Z,10.63
2023-02-18T04:10:08.496Z,7.78
2023-02-18T04:12:35.560Z,10.57
2023-02-18T04:15:02.858Z,15.80
2023-02-18T04:17:29.879Z,15.23
2023-02-18T04:19:57.124Z,10.90
2023-02-18T04:22:24.345Z,16.40
2023-02-18T04:24:51.910Z,9.65
2023-02-18T04:27:19.112Z,13.50
2023-02-18T04:29:46.464Z,14.30
2023-02-18T04:32:13.464Z,11.68
2023-02-18T04:34:40.725Z,16.27
2023-02-18T04:37:08.122Z,10.35
2023-02-18T04:39:35.482Z,16.40
2023-02-18T04:42:02.658Z,13.30
2023-02-18T04:44:29.987Z,4.68
2023-02-18T04:46:57.039Z,13.88
2023-02-18T04:49:24.282Z,8.68
2023-02-18T04:51:51.676Z,9.15
2023-02-18T04:54:18.960Z,13.95
2023-02-18T04:56:45.939Z,7.18
2023-02-18T04:59:13.245Z,10.93
2023-02-18T05:01:40.237Z,8.35
2023-02-18T05:04:08.074Z,7.40
2023-02-18T05:06:35.116Z,9.15
2023-02-18T05:09:02.450Z,7.07
2023-02-18T05:11:29.397Z,10.45
2023-02-18T05:13:56.668Z,13.23
2023-02-18T05:16:24.082Z,10.10
2023-02-18T05:18:51.525Z,13.60
2023-02-18T05:21:18.733Z,9.88
2023-02-18T05:23:46.097Z,22.30
2023-02-18T05:26:13.214Z,10.88
2023-02-18T05:28:40.600Z,9.15
2023-02-18T05:31:07.765Z,11.50
2023-02-18T05:33:35.171Z,11.18
2023-02-18T05:36:02.169Z,12.25
2023-02-18T05:38:29.506Z,10.77
2023-02-18T05:40:56.513Z,8.13
2023-02-18T05:43:23.824Z,9.02
2023-02-18T05:45:50.814Z,8.07
2023-02-18T05:48:18.358Z,11.60
2023-02-18T05:50:45.426Z,12.25
2023-02-18T05:53:12.880Z,12.25
2023-02-18T05:55:39.997Z,11.75
2023-02-18T05:58:07.996Z,15.55
2023-02-18T06:00:35.154Z,20.73
2023-02-18T06:03:02.590Z,18.50
2023-02-18T06:05:29.738Z,6.15
2023-02-18T06:07:57.516Z,9.23
2023-02-18T06:10:24.662Z,8.77
2023-02-18T06:12:51.976Z,15.90
2023-02-18T06:15:19.013Z,10.45
2023-02-18T06:17:46.342Z,8.57
2023-02-18T06:20:13.355Z,9.23
2023-02-18T06:22:40.741Z,8.98
2023-02-18T06:25:07.907Z,11.02
2023-02-18T06:27:35.217Z,13.50
2023-02-18T06:30:02.252Z,7.53
2023-02-18T06:32:29.531Z,14.05
2023-02-18T06:34:56.491Z,14.43
2023-02-18T06:37:23.882Z,19.88
2023-02-18T06:39:51.087Z,13.05
2023-02-18T06:42:18.611Z,18.65
2023-02-18T06:44:45.595Z,9.00
2023-02-18T06:47:12.945Z,7.43
2023-02-18T06:49:40.104Z,11.05
2023-02-18T06:52:07.447Z,7.22
2023-02-18T06:54:34.916Z,14.82
2023-02-18T06:57:08.280Z,17.80
2023-02-18T06:59:35.375Z,10.55
2023-02-18T07:02:02.719Z,12.98
2023-02-18T07:04:29.829Z,17.67
2023-02-18T07:06:57.104Z,23.00
2023-02-18T07:09:24.118Z,18.98
2023-02-18T07:11:51.459Z,19.63
2023-02-18T07:14:18.432Z,52.22
2023-02-18T07:16:46.129Z,25.38
2023-02-18T07:19:14.942Z,14.40
2023-02-18T07:21:42.835Z,19.67
2023-02-18T07:24:09.909Z,21.65
2023-02-18T07:26:37.443Z,19.08
2023-02-18T07:29:04.531Z,20.65
2023-02-18T07:31:31.938Z,21.65
2023-02-18T07:33:59.140Z,21.85
2023-02-18T07:36:26.878Z,23.45
2023-02-18T07:38:57.889Z,22.77
2023-02-18T07:41:25.393Z,11.15
2023-02-18T07:43:52.440Z,16.42
2023-02-18T07:46:19.882Z,24.65
2023-02-18T07:48:47.050Z,27.25
2023-02-18T07:51:14.494Z,18.10
2023-02-18T07:53:41.524Z,28.48
2023-02-18T07:56:09.275Z,40.97
2023-02-18T07:58:38.021Z,17.52
2023-02-18T08:01:08.862Z,23.67
2023-02-18T08:03:36.133Z,15.73
2023-02-18T08:06:05.320Z,19.92
2023-02-18T08:08:35.712Z,16.08
2023-02-18T08:11:18.096Z,18.88
2023-02-18T08:13:47.287Z,21.27
2023-02-18T08:16:17.805Z,21.80
2023-02-18T08:18:45.249Z,22.65
2023-02-18T08:21:13.124Z,33.03
2023-02-18T08:23:40.697Z,15.98
2023-02-18T08:26:09.589Z,26.65
2023-02-18T08:28:46.145Z,21.23
2023-02-18T08:31:22.654Z,29.60
2023-02-18T08:33:50.082Z,22.75
2023-02-18T08:36:17.899Z,17.65
2023-02-18T08:38:44.943Z,23.60
2023-02-18T08:41:14.458Z,20.00
2023-02-18T08:43:42.957Z,20.70
2023-02-18T08:46:15.778Z,19.10
2023-02-18T08:48:44.928Z,18.17
2023-02-18T08:51:17.897Z,22.00
2023-02-18T08:53:47.399Z,18.13
2023-02-18T08:56:15.813Z,19.25
2023-02-18T08:58:43.201Z,26.65
2023-02-18T09:01:12.664Z,26.10
2023-02-18T09:03:40.171Z,23.25
2023-02-18T09:06:08.165Z,37.97
2023-02-18T09:08:35.181Z,28.20
2023-02-18T09:11:05.926Z,28.90
2023-02-18T09:13:33.893Z,15.23
2023-02-18T09:16:04.541Z,13.38
2023-02-18T09:18:32.632Z,13.32
2023-02-18T09:21:00.755Z,30.42
2023-02-18T09:23:31.991Z,17.45
2023-02-18T09:25:59.815Z,19.88
2023-02-18T09:28:27.421Z,23.80
2023-02-18T09:30:54.816Z,18.15
2023-02-18T09:33:24.601Z,24.33
2023-02-18T09:35:51.962Z,16.00
2023-02-18T09:38:18.988Z,29.48
2023-02-18T09:40:50.710Z,14.65
2023-02-18T09:43:32.712Z,18.85
2023-02-18T09:46:02.261Z,23.95
2023-02-18T09:48:33.435Z,40.33
2023-02-18T09:51:01.084Z,13.80
2023-02-18T09:53:28.976Z,20.05
2023-02-18T09:55:58.612Z,20.65
2023-02-18T09:58:30.530Z,24.50
2023-02-18T10:01:07.173Z,15.27
2023-02-18T10:03:34.407Z,20.90
2023-02-18T10:06:08.540Z,21.08
2023-02-18T10:11:21.889Z,25.15
2023-02-18T10:13:49.311Z,13.73
2023-02-18T10:16:19.375Z,34.60
2023-02-18T10:18:50.989Z,17.65
2023-02-18T10:21:24.156Z,15.15
2023-02-18T10:24:00.697Z,21.27
2023-02-18T10:26:33.527Z,17.25
2023-02-18T10:29:01.761Z,19.88
2023-02-18T10:31:35.841Z,14.70
2023-02-18T10:34:30.238Z,15.13
2023-02-18T10:37:24.132Z,17.00
2023-02-18T10:40:18.499Z,33.60
2023-02-18T10:43:09.322Z,22.27
2023-02-18T10:46:13.714Z,15.45
2023-02-18T10:48:57.964Z,22.20
2023-02-18T10:51:29.560Z,18.10
2023-02-18T10:53:57.299Z,20.75
2023-02-18T10:56:36.252Z,23.55
2023-02-18T10:59:33.641Z,16.80
2023-02-18T11:02:14.274Z,22.38
2023-02-18T11:04:44.622Z,26.88
2023-02-18T11:07:30.185Z,30.90
2023-02-18T11:10:00.799Z,13.90
2023-02-18T11:12:50.281Z,17.70
2023-02-18T11:15:24.314Z,19.75
2023-02-18T11:17:58.825Z,26.17
2023-02-18T11:20:32.101Z,12.93
2023-02-18T11:23:08.429Z,15.77
2023-02-18T11:25:39.353Z,16.52
2023-02-18T11:28:08.751Z,36.20
2023-02-18T11:30:50.771Z,16.02
2023-02-18T11:33:18.225Z,13.88
2023-02-18T11:35:54.510Z,18.58
2023-02-18T11:38:50.114Z,21.50
2023-02-18T11:41:39.616Z,15.75
2023-02-18T11:44:21.218Z,12.60
2023-02-18T11:46:56.558Z,21.45
2023-02-18T11:51:51.825Z,17.52
2023-02-18T11:54:32.146Z,19.05
2023-02-18T11:57:05.339Z,16.35
2023-02-18T11:59:43.566Z,11.05
2023-02-18T12:02:10.828Z,11.90
2023-02-18T12:04:56.140Z,27.52
2023-02-18T12:07:35.278Z,16.88
2023-02-18T12:10:39.417Z,14.43
2023-02-18T12:13:48.289Z,20.48
2023-02-18T12:16:29.560Z,10.50
2023-02-18T12:19:20.827Z,11.38
2023-02-18T12:22:22.202Z,15.95
2023-02-18T12:24:55.296Z,19.40
2023-02-18T12:27:30.464Z,14.95
2023-02-18T12:30:21.826Z,15.60
2023-02-18T12:33:12.936Z,17.33
2023-02-18T12:35:57.972Z,16.83
2023-02-18T12:38:44.432Z,17.25
2023-02-18T12:41:23.254Z,31.20
2023-02-18T12:44:11.311Z,18.80
2023-02-18T12:46:57.473Z,18.02
2023-02-18T12:50:05.315Z,22.58
2023-02-18T12:52:54.329Z,19.38
2023-02-18T12:55:43.568Z,14.07
2023-02-18T12:58:38.648Z,25.58
2023-02-18T13:01:40.154Z,13.45
2023-02-18T13:04:28.353Z,19.73
2023-02-18T13:07:20.403Z,21.75
2023-02-18T13:10:02.603Z,16.45
2023-02-18T13:12:59.176Z,22.60
2023-02-18T13:15:51.156Z,22.42
2023-02-18T13:18:24.327Z,27.05
2023-02-18T13:20:59.077Z,22.65
2023-02-18T13:23:50.972Z,22.05
2023-02-18T13:26:19.308Z,21.85
2023-02-18T13:29:07.835Z,27.00
2023-02-18T13:31:38.049Z,21.50
2023-02-18T13:34:42.998Z,27.52
2023-02-18T13:37:27.776Z,24.58
2023-02-18T13:40:00.669Z,24.57
2023-02-18T13:42:28.603Z,27.67
2023-02-18T13:44:55.598Z,30.25
2023-02-18T13:47:46.716Z,25.52
2023-02-18T13:50:23.250Z,23.38
2023-02-18T13:52:57.316Z,20.48
2023-02-18T13:55:35.453Z,25.98
2023-02-18T13:58:02.967Z,31.58
2023-02-18T14:00:40.034Z,29.50
2023-02-18T14:03:36.222Z,38.55
2023-02-18T14:06:25.331Z,41.90
2023-02-18T14:11:41.926Z,26.92
2023-02-18T14:14:34.812Z,24.35
2023-02-18T14:17:20.795Z,51.42
2023-02-18T14:19:58.872Z,32.13
2023-02-18T14:22:32.130Z,41.42
2023-02-18T14:25:08.156Z,34.05
2023-02-18T14:27:36.589Z,32.60
2023-02-18T14:30:19.092Z,29.58
2023-02-18T14:32:46.747Z,20.95
2023-02-18T14:35:14.121Z,33.65
2023-02-18T14:38:00.478Z,55.03
2023-02-18T14:40:43.469Z,68.32
2023-02-18T14:43:44.246Z,52.67
2023-02-18T14:46:47.923Z,14.05
2023-02-18T14:49:36.866Z,20.98
2023-02-18T14:52:07.632Z,16.90
2023-02-18T14:54:35.872Z,19.38
2023-02-18T14:57:13.863Z,18.33
2023-02-18T14:59:42.923Z,16.10
2023-02-18T15:02:31.006Z,13.48
2023-02-18T15:05:17.978Z,14.77
2023-02-18T15:08:03.627Z,20.80
2023-02-18T15:10:39.367Z,22.20
2023-02-18T15:13:14.247Z,28.77
2023-02-18T15:15:43.513Z,40.42
2023-02-18T15:18:28.397Z,28.77
2023-02-18T15:20:55.596Z,36.25
2023-02-18T15:23:23.382Z,25.27
2023-02-18T15:25:54.207Z,39.47
2023-02-18T15:28:26.347Z,32.00
2023-02-18T15:30:53.778Z,28.20
2023-02-18T15:33:21.930Z,21.73
2023-02-18T15:35:49.486Z,21.98
2023-02-18T15:38:19.456Z,53.30
2023-02-18T15:40:54.860Z,25.02
2023-02-18T15:43:26.604Z,28.60
2023-02-18T15:45:57.373Z,42.20
2023-02-18T15:48:38.001Z,29.55
2023-02-18T15:51:16.768Z,28.42
2023-02-18T15:53:49.024Z,23.48
2023-02-18T15:56:29.440Z,28.95
2023-02-18T15:59:14.775Z,62.17
2023-02-18T16:01:42.502Z,69.47
2023-02-18T16:04:14.048Z,57.83
2023-02-18T16:06:46.892Z,73.95
2023-02-18T16:09:22.570Z,46.50
2023-02-18T16:11:57.133Z,48.42
2023-02-18T16:17:18.700Z,24.40
2023-02-18T16:20:05.564Z,28.83
2023-02-18T16:22:36.358Z,21.95
2023-02-18T16:25:12.570Z,18.20
2023-02-18T16:27:53.616Z,32.20
2023-02-18T16:30:25.833Z,27.20
2023-02-18T16:32:54.284Z,19.00
2023-02-18T16:35:23.329Z,20.33
2023-02-18T16:37:50.553Z,21.38
2023-02-18T16:40:29.353Z,19.75
2023-02-18T16:43:01.665Z,18.95
2023-02-18T16:45:43.855Z,46.33
2023-02-18T16:48:40.724Z,64.40
2023-02-18T16:51:32.998Z,89.90
2023-02-18T16:54:00.455Z,104.40
2023-02-18T16:56:32.340Z,118.85
2023-02-18T16:58:59.787Z,82.47
2023-02-18T17:01:29.513Z,50.38
2023-02-18T17:04:01.699Z,81.50
2023-02-18T17:06:30.047Z,132.77
2023-02-18T17:08:57.259Z,121.10
2023-02-18T17:11:33.766Z,105.22
2023-02-18T17:14:06.264Z,156.82
2023-02-18T17:16:33.909Z,79.10
2023-02-18T17:19:01.031Z,50.17
2023-02-18T17:21:28.570Z,42.53
2023-02-18T17:23:56.076Z,55.97
2023-02-18T17:26:28.478Z,54.70
2023-02-18T17:28:57.728Z,41.97
2023-02-18T17:31:31.608Z,49.63
2023-02-18T17:34:01.346Z,85.22
2023-02-18T17:36:28.819Z,52.17
2023-02-18T17:38:59.756Z,46.47
2023-02-18T17:41:31.078Z,40.33
2023-02-18T17:43:58.922Z,28.20
2023-02-18T17:46:26.327Z,31.63
2023-02-18T17:48:54.207Z,56.28
2023-02-18T17:51:26.693Z,48.63
2023-02-18T17:53:54.332Z,33.38
2023-02-18T17:56:22.689Z,36.88
2023-02-18T17:58:49.807Z,37.72
2023-02-18T18:01:21.211Z,90.60
2023-02-18T18:03:48.739Z,71.47
2023-02-18T18:06:17.959Z,28.38
2023-02-18T18:08:47.124Z,27.75
2023-02-18T18:11:25.886Z,23.08
2023-02-18T18:13:53.431Z,23.73
2023-02-18T18:16:21.634Z,19.17
2023-02-18T18:18:48.897Z,24.38
2023-02-18T18:21:34.578Z,25.92
2023-02-18T18:24:02.565Z,27.45
2023-02-18T18:26:31.028Z,70.00
2023-02-18T18:28:58.217Z,36.92
2023-02-18T18:31:25.859Z,34.88
2023-02-18T18:33:53.847Z,43.20
2023-02-18T18:36:24.086Z,50.63
2023-02-18T18:38:51.998Z,56.88
2023-02-18T18:41:21.857Z,56.72
2023-02-18T18:43:49.857Z,31.67
2023-02-18T18:46:17.795Z,38.60
2023-02-18T18:48:45.044Z,45.45
2023-02-18T18:51:20.810Z,32.90
2023-02-18T18:53:48.091Z,25.40
2023-02-18T18:56:15.786Z,19.13
2023-02-18T18:58:43.315Z,27.58
2023-02-18T19:01:18.280Z,23.23
2023-02-18T19:03:46.542Z,30.15
2023-02-18T19:06:19.078Z,24.48
2023-02-18T19:08:48.131Z,16.92
2023-02-18T19:11:16.240Z,25.75
2023-02-18T19:13:43.693Z,28.33
2023-02-18T19:16:13.955Z,29.50
2023-02-18T19:18:42.461Z,19.58
2023-02-18T19:21:10.215Z,31.27
2023-02-18T19:23:37.718Z,23.95
2023-02-18T19:26:06.358Z,22.02
2023-02-18T19:28:33.646Z,23.65
2023-02-18T19:31:01.732Z,25.13
2023-02-18T19:33:29.990Z,19.33
2023-02-18T19:35:57.823Z,24.13
2023-02-18T19:38:27.249Z,23.17
2023-02-18T19:40:56.721Z,16.25
2023-02-18T19:43:23.892Z,25.55
2023-02-18T19:45:51.385Z,19.98
2023-02-18T19:48:18.717Z,16.83
2023-02-18T19:50:48.005Z,20.48
2023-02-18T19:53:15.236Z,26.25
2023-02-18T19:55:42.728Z,18.08
2023-02-18T19:58:10.604Z,17.75
2023-02-18T20:00:40.490Z,17.60
2023-02-18T20:03:07.625Z,27.73
2023-02-18T20:05:40.482Z,43.15
2023-02-18T20:08:09.884Z,35.88
2023-02-18T20:10:41.503Z,40.45
2023-02-18T20:13:12.118Z,43.47
2023-02-18T20:15:40.842Z,68.78
2023-02-18T20:18:08.633Z,93.57
2023-02-18T20:20:36.402Z,61.85
2023-02-18T20:23:05.874Z,47.80
2023-02-18T20:25:33.576Z,41.13
2023-02-18T20:28:01.838Z,41.53
2023-02-18T20:30:29.696Z,38.78
2023-02-18T20:32:57.390Z,85.60
2023-02-18T20:35:28.213Z,158.93
2023-02-18T20:37:58.309Z,176.85
2023-02-18T20:40:25.871Z,65.78
2023-02-18T20:42:53.477Z,64.68
2023-02-18T20:45:20.972Z,78.65
2023-02-18T20:47:48.599Z,91.15
2023-02-18T20:50:16.654Z,71.88
2023-02-18T20:52:43.885Z,70.88
2023-02-18T20:55:11.353Z,88.45
2023-02-18T20:57:40.698Z,153.10
2023-02-18T21:00:09.248Z,77.00
2023-02-18T21:02:37.666Z,58.85
2023-02-18T21:05:05.512Z,73.03
2023-02-18T21:07:35.622Z,91.22
2023-02-18T21:10:04.425Z,89.30
2023-02-18T21:12:31.874Z,131.20
2023-02-18T21:15:00.388Z,55.60
2023-02-18T21:17:28.037Z,59.10
2023-02-18T21:19:55.683Z,59.20
2023-02-18T21:22:22.965Z,63.80
2023-02-18T21:24:51.654Z,61.35
2023-02-18T21:27:18.740Z,48.72
2023-02-18T21:29:46.093Z,46.15
2023-02-18T21:32:14.599Z,53.72
2023-02-18T21:34:42.070Z,53.80
2023-02-18T21:37:09.314Z,83.78
2023-02-18T21:39:36.665Z,47.28
2023-02-18T21:42:04.834Z,41.33
2023-02-18T21:44:41.758Z,35.65
2023-02-18T21:47:09.725Z,50.63
2023-02-18T21:49:37.064Z,41.17
2023-02-18T21:52:10.363Z,54.90
2023-02-18T21:54:44.493Z,50.13
2023-02-18T21:57:19.816Z,37.17
2023-02-18T21:59:47.876Z,32.80
2023-02-18T22:02:24.659Z,39.10
2023-02-18T22:04:52.557Z,44.60
2023-02-18T22:07:21.517Z,33.80
2023-02-18T22:09:49.281Z,39.60
2023-02-18T22:12:17.147Z,27.85
2023-02-18T22:14:44.853Z,38.17
2023-02-18T22:17:13.674Z,28.13
2023-02-18T22:19:41.036Z,36.85
2023-02-18T22:22:09.130Z,43.35
2023-02-18T22:24:36.526Z,39.08
2023-02-18T22:27:03.709Z,31.73
2023-02-18T22:29:32.059Z,30.00
2023-02-18T22:31:59.669Z,34.13
2023-02-18T22:34:27.488Z,40.67
2023-02-18T22:36:54.842Z,57.05
2023-02-18T22:39:22.280Z,92.78
2023-02-18T22:41:49.753Z,136.95
2023-02-18T22:44:19.108Z,53.45
2023-02-18T22:46:46.221Z,46.75
2023-02-18T22:49:15.648Z,38.50
2023-02-18T22:51:44.425Z,47.85
2023-02-18T22:54:16.665Z,58.97
2023-02-18T22:56:44.860Z,50.75
2023-02-18T22:59:14.935Z,44.88
2023-02-18T23:01:48.925Z,51.30
2023-02-18T23:04:18.395Z,53.80
2023-02-18T23:06:47.007Z,48.58
2023-02-18T23:09:17.861Z,35.30
2023-02-18T23:11:45.232Z,172.07
2023-02-18T23:14:20.976Z,193.52
2023-02-18T23:17:17.529Z,58.67
2023-02-18T23:19:50.481Z,35.88
2023-02-18T23:22:20.208Z,41.80
2023-02-18T23:24:49.438Z,30.83
2023-02-18T23:27:17.276Z,25.90
2023-02-18T23:29:44.571Z,50.35
2023-02-18T23:32:15.783Z,246.10
2023-02-18T23:34:43.777Z,157.20
2023-02-18T23:37:11.155Z,49.78
2023-02-18T23:39:40.857Z,41.65
2023-02-18T23:42:08.447Z,35.33
2023-02-18T23:44:36.123Z,35.85
2023-02-18T23:47:03.111Z,29.27
2023-02-18T23:49:30.451Z,24.40
2023-02-18T23:51:58.193Z,21.42
2023-02-18T23:54:26.046Z,32.20
2023-02-18T23:56:53.058Z,25.45
2023-02-18T23:59:20.607Z,28.60
